createdAt,value
2022-10-03T00:01:20.400Z,11.30
2022-10-03T00:03:52.608Z,11.30
2022-10-03T00:06:27.661Z,11.30
2022-10-03T00:09:05.850Z,11.30
2022-10-03T00:11:41.229Z,11.40
2022-10-03T00:14:14.431Z,11.40
2022-10-03T00:16:45.022Z,11.40
2022-10-03T00:19:18.627Z,11.50
2022-10-03T00:21:56.191Z,11.50
2022-10-03T00:24:28.726Z,11.50
2022-10-03T00:27:00.507Z,11.50
2022-10-03T00:29:37.571Z,11.60
2022-10-03T00:32:12.669Z,11.60
2022-10-03T00:34:47.478Z,11.70
2022-10-03T00:37:25.629Z,11.70
2022-10-03T00:40:01.918Z,11.70
2022-10-03T00:42:59.589Z,11.70
2022-10-03T00:45:55.560Z,11.70
2022-10-03T00:48:58.201Z,11.70
2022-10-03T00:51:30.904Z,11.70
2022-10-03T00:54:08.080Z,11.80
2022-10-03T00:57:04.540Z,11.80
2022-10-03T00:59:48.009Z,11.80
2022-10-03T01:02:37.871Z,11.70
2022-10-03T01:05:13.129Z,11.70
2022-10-03T01:08:04.012Z,11.70
2022-10-03T01:10:35.258Z,11.60
2022-10-03T01:13:14.084Z,11.60
2022-10-03T01:15:48.190Z,11.60
2022-10-03T01:18:22.429Z,11.60
2022-10-03T01:20:55.421Z,11.60
2022-10-03T01:23:53.128Z,11.50
2022-10-03T01:26:34.138Z,11.60
2022-10-03T01:29:22.071Z,11.60
2022-10-03T01:31:52.888Z,11.60
2022-10-03T01:34:24.735Z,11.60
2022-10-03T01:37:06.260Z,11.60
2022-10-03T01:39:38.591Z,11.60
2022-10-03T01:42:09.976Z,11.70
2022-10-03T01:44:45.684Z,11.70
2022-10-03T01:47:20.087Z,11.70
2022-10-03T01:49:50.566Z,11.70
2022-10-03T01:52:20.841Z,11.70
2022-10-03T01:54:52.024Z,11.70
2022-10-03T01:57:22.459Z,11.70
2022-10-03T01:59:55.451Z,11.70
2022-10-03T02:02:34.745Z,11.70
2022-10-03T02:05:20.431Z,11.70
2022-10-03T02:07:51.899Z,11.70
2022-10-03T02:10:24.706Z,11.60
2022-10-03T02:12:57.565Z,11.60
2022-10-03T02:15:29.123Z,11.60
2022-10-03T02:17:58.550Z,11.60
2022-10-03T02:20:33.563Z,11.60
2022-10-03T02:23:01.569Z,11.70
2022-10-03T02:25:40.790Z,11.70
2022-10-03T02:28:49.173Z,11.70
2022-10-03T02:31:49.897Z,11.70
2022-10-03T02:34:34.394Z,11.70
2022-10-03T02:37:27.270Z,11.70
2022-10-03T02:40:17.619Z,11.70
2022-10-03T02:43:09.115Z,11.80
2022-10-03T02:46:13.674Z,11.80
2022-10-03T02:49:24.147Z,11.80
2022-10-03T02:52:09.099Z,11.80
2022-10-03T02:54:58.855Z,11.80
2022-10-03T02:57:42.865Z,11.80
2022-10-03T03:00:13.059Z,11.80
2022-10-03T03:03:02.411Z,11.80
2022-10-03T03:05:41.343Z,11.80
2022-10-03T03:08:21.405Z,11.80
2022-10-03T03:11:08.606Z,11.80
2022-10-03T03:14:08.863Z,11.80
2022-10-03T03:16:56.597Z,11.80
2022-10-03T03:19:46.879Z,11.90
2022-10-03T03:22:25.990Z,11.80
2022-10-03T03:25:02.080Z,11.80
2022-10-03T03:27:44.674Z,11.80
2022-10-03T03:30:13.814Z,11.80
2022-10-03T03:32:56.408Z,11.90
2022-10-03T03:35:29.503Z,11.80
2022-10-03T03:38:04.815Z,11.80
2022-10-03T03:40:40.787Z,11.90
2022-10-03T03:43:22.283Z,11.90
2022-10-03T03:45:56.989Z,11.80
2022-10-03T03:48:42.456Z,11.90
2022-10-03T03:51:17.408Z,11.90
2022-10-03T03:53:58.378Z,11.80
2022-10-03T03:56:34.846Z,11.90
2022-10-03T03:59:09.547Z,11.80
2022-10-03T04:01:52.387Z,11.90
2022-10-03T04:04:29.979Z,11.90
2022-10-03T04:07:03.632Z,11.90
2022-10-03T04:09:56.512Z,11.90
2022-10-03T04:12:32.038Z,11.90
2022-10-03T04:15:08.447Z,11.90
2022-10-03T04:18:00.424Z,11.90
2022-10-03T04:20:40.915Z,11.90
2022-10-03T04:23:18.639Z,11.90
2022-10-03T04:26:02.437Z,11.90
2022-10-03T04:29:03.397Z,11.90
2022-10-03T04:31:41.876Z,11.90
2022-10-03T04:34:17.490Z,11.90
2022-10-03T04:37:00.490Z,11.90
2022-10-03T04:39:32.979Z,11.80
2022-10-03T04:42:04.730Z,11.90
2022-10-03T04:44:40.514Z,11.80
2022-10-03T04:47:11.076Z,11.80
2022-10-03T04:49:43.046Z,11.80
2022-10-03T04:52:17.282Z,11.80
2022-10-03T04:54:49.358Z,11.90
2022-10-03T04:57:26.366Z,11.80
2022-10-03T04:59:57.894Z,11.80
2022-10-03T05:02:43.441Z,11.80
2022-10-03T05:05:28.064Z,11.80
2022-10-03T05:08:01.642Z,11.80
2022-10-03T05:10:47.162Z,11.70
2022-10-03T05:13:19.473Z,11.70
2022-10-03T05:15:52.551Z,11.70
2022-10-03T05:18:26.617Z,11.70
2022-10-03T05:20:57.046Z,11.70
2022-10-03T05:23:36.113Z,11.80
2022-10-03T05:26:39.130Z,11.70
2022-10-03T05:29:02.770Z,11.70
2022-10-03T05:31:36.800Z,11.70
2022-10-03T05:34:13.863Z,11.70
2022-10-03T05:36:58.154Z,11.70
2022-10-03T05:39:28.039Z,11.70
2022-10-03T05:42:20.908Z,11.70
2022-10-03T05:44:49.690Z,11.70
2022-10-03T05:47:40.304Z,11.70
2022-10-03T05:50:36.554Z,11.70
2022-10-03T05:53:20.831Z,11.70
2022-10-03T05:55:55.109Z,11.70
2022-10-03T05:58:33.010Z,11.60
2022-10-03T06:01:17.327Z,11.60
2022-10-03T06:04:18.017Z,11.60
2022-10-03T06:06:52.374Z,11.60
2022-10-03T06:09:50.808Z,11.60
2022-10-03T06:12:19.995Z,11.70
2022-10-03T06:15:03.142Z,11.70
2022-10-03T06:17:58.978Z,11.70
2022-10-03T06:21:06.288Z,11.60
2022-10-03T06:23:53.779Z,11.60
2022-10-03T06:26:46.208Z,11.60
2022-10-03T06:29:32.075Z,11.60
2022-10-03T06:32:23.690Z,11.70
2022-10-03T06:35:28.227Z,11.80
2022-10-03T06:38:28.980Z,11.80
2022-10-03T06:41:24.124Z,11.90
2022-10-03T06:44:13.257Z,11.90
2022-10-03T06:46:57.453Z,11.90
2022-10-03T06:50:05.489Z,11.90
2022-10-03T06:52:55.171Z,11.90
2022-10-03T06:55:46.877Z,12.00
2022-10-03T06:58:37.551Z,12.00
2022-10-03T07:01:22.672Z,12.20
2022-10-03T07:04:11.971Z,12.20
2022-10-03T07:07:00.418Z,12.20
2022-10-03T07:10:01.722Z,12.40
2022-10-03T07:12:57.807Z,12.80
2022-10-03T07:16:14.355Z,13.10
2022-10-03T07:19:01.699Z,13.00
2022-10-03T07:21:37.707Z,12.90
2022-10-03T07:24:16.361Z,12.90
2022-10-03T07:27:14.448Z,12.90
2022-10-03T07:30:11.384Z,12.90
2022-10-03T07:33:04.768Z,12.90
2022-10-03T07:36:10.454Z,12.90
2022-10-03T07:38:59.523Z,12.90
2022-10-03T07:41:51.656Z,12.90
2022-10-03T07:44:53.673Z,12.90
2022-10-03T07:47:53.630Z,12.90
2022-10-03T07:50:46.520Z,12.90
2022-10-03T07:53:24.525Z,13.10
2022-10-03T07:56:00.464Z,13.10
2022-10-03T07:58:46.359Z,13.10
2022-10-03T08:01:27.224Z,13.10
2022-10-03T08:04:18.070Z,13.10
2022-10-03T08:06:46.319Z,13.10
2022-10-03T08:09:31.876Z,13.30
2022-10-03T08:12:29.422Z,13.30
2022-10-03T08:15:04.719Z,13.30
2022-10-03T08:17:58.581Z,13.70
2022-10-03T08:20:35.285Z,13.90
2022-10-03T08:23:13.606Z,14.00
2022-10-03T08:25:51.448Z,14.10
2022-10-03T08:28:46.172Z,14.00
2022-10-03T08:31:35.885Z,14.00
2022-10-03T08:34:22.207Z,13.80
2022-10-03T08:37:07.090Z,13.70
2022-10-03T08:39:42.996Z,13.80
2022-10-03T08:42:43.745Z,13.80
2022-10-03T08:45:41.506Z,13.90
2022-10-03T08:48:45.736Z,13.80
2022-10-03T08:51:41.338Z,13.90
2022-10-03T08:54:31.162Z,14.00
2022-10-03T08:57:08.514Z,14.00
2022-10-03T09:00:06.428Z,14.40
2022-10-03T09:06:35.657Z,14.80
2022-10-03T09:09:21.195Z,15.00
2022-10-03T09:12:02.521Z,15.60
2022-10-03T09:14:58.551Z,15.60
2022-10-03T09:17:53.895Z,15.40
2022-10-03T09:20:50.598Z,15.30
2022-10-03T09:23:39.868Z,15.40
2022-10-03T09:26:24.797Z,15.70
2022-10-03T09:29:16.501Z,16.40
2022-10-03T09:32:02.429Z,16.30
2022-10-03T09:34:44.620Z,16.10
2022-10-03T09:37:42.244Z,16.10
2022-10-03T09:40:30.085Z,16.30
2022-10-03T09:43:57.116Z,16.40
2022-10-03T09:47:11.107Z,16.40
2022-10-03T09:49:51.854Z,16.50
2022-10-03T09:52:28.198Z,16.40
2022-10-03T09:55:29.880Z,16.50
2022-10-03T09:58:23.435Z,16.40
2022-10-03T10:01:09.518Z,16.50
2022-10-03T10:03:57.114Z,16.40
2022-10-03T10:06:39.146Z,16.70
2022-10-03T10:09:43.959Z,17.00
2022-10-03T10:12:39.764Z,17.10
2022-10-03T10:15:39.931Z,17.10
2022-10-03T10:18:34.920Z,17.00
2022-10-03T10:21:36.873Z,16.80
2022-10-03T10:24:24.562Z,16.70
2022-10-03T10:27:23.547Z,16.40
2022-10-03T10:30:05.936Z,17.30
2022-10-03T10:33:09.983Z,17.50
2022-10-03T10:36:15.603Z,17.90
2022-10-03T10:39:10.473Z,18.00
2022-10-03T10:41:57.028Z,17.70
2022-10-03T10:44:58.765Z,17.50
2022-10-03T10:48:09.657Z,17.30
2022-10-03T10:51:16.218Z,16.70
2022-10-03T10:54:28.188Z,16.60
2022-10-03T10:57:22.647Z,16.40
2022-10-03T11:00:09.192Z,16.20
2022-10-03T11:03:10.713Z,16.30
2022-10-03T11:05:58.178Z,16.60
2022-10-03T11:09:01.401Z,17.00
2022-10-03T11:12:37.659Z,17.00
2022-10-03T11:16:00.430Z,17.10
2022-10-03T11:19:16.598Z,17.10
2022-10-03T11:22:20.339Z,16.70
2022-10-03T11:25:19.046Z,16.30
2022-10-03T11:28:18.874Z,16.30
2022-10-03T11:31:25.725Z,16.30
2022-10-03T11:34:31.535Z,16.20
2022-10-03T11:37:07.771Z,16.30
2022-10-03T11:39:43.414Z,16.30
2022-10-03T11:42:18.390Z,16.60
2022-10-03T11:44:47.343Z,16.90
2022-10-03T11:47:26.270Z,16.90
2022-10-03T11:50:28.162Z,16.70
2022-10-03T11:53:14.931Z,16.70
2022-10-03T11:55:44.203Z,16.60
2022-10-03T11:58:22.335Z,16.80
2022-10-03T12:00:56.230Z,16.70
2022-10-03T12:03:26.908Z,16.70
2022-10-03T12:06:16.786Z,16.70
2022-10-03T12:08:56.854Z,16.70
2022-10-03T12:11:28.314Z,16.40
2022-10-03T12:14:14.869Z,16.20
2022-10-03T12:16:57.850Z,16.20
2022-10-03T12:19:31.140Z,16.30
2022-10-03T12:22:01.336Z,16.50
2022-10-03T12:24:31.097Z,16.80
2022-10-03T12:27:02.794Z,16.90
2022-10-03T12:29:32.470Z,17.00
2022-10-03T12:32:11.807Z,17.30
2022-10-03T12:34:40.990Z,17.60
2022-10-03T12:37:34.155Z,17.60
2022-10-03T12:40:06.975Z,17.10
2022-10-03T12:42:36.321Z,17.00
2022-10-03T12:45:05.811Z,16.70
2022-10-03T12:47:56.129Z,16.50
2022-10-03T12:50:38.976Z,16.50
2022-10-03T12:53:28.253Z,16.40
2022-10-03T12:56:06.504Z,16.40
2022-10-03T12:58:39.717Z,16.30
2022-10-03T13:01:10.730Z,16.30
2022-10-03T13:03:41.143Z,16.40
2022-10-03T13:06:50.941Z,16.40
2022-10-03T13:09:23.588Z,16.50
2022-10-03T13:12:04.236Z,16.40
2022-10-03T13:14:43.559Z,16.50
2022-10-03T13:17:17.937Z,16.40
2022-10-03T13:19:49.586Z,16.40
2022-10-03T13:22:26.267Z,16.60
2022-10-03T13:24:57.791Z,16.40
2022-10-03T13:27:33.382Z,16.40
2022-10-03T13:30:06.128Z,16.60
2022-10-03T13:32:34.955Z,16.80
2022-10-03T13:35:26.737Z,17.00
2022-10-03T13:38:52.688Z,17.10
2022-10-03T13:41:27.638Z,17.40
2022-10-03T13:44:00.722Z,17.30
2022-10-03T13:46:33.994Z,17.10
2022-10-03T13:49:03.176Z,16.90
2022-10-03T13:51:37.237Z,16.70
2022-10-03T13:54:07.975Z,17.00
2022-10-03T13:56:48.953Z,17.10
2022-10-03T13:59:39.241Z,17.00
2022-10-03T14:02:17.737Z,16.60
2022-10-03T14:05:07.863Z,16.30
2022-10-03T14:07:42.802Z,16.00
2022-10-03T14:10:16.548Z,15.90
2022-10-03T14:12:58.067Z,16.00
2022-10-03T14:15:36.388Z,16.00
2022-10-03T14:18:10.073Z,16.10
2022-10-03T14:20:40.033Z,16.10
2022-10-03T14:23:17.254Z,16.20
2022-10-03T14:25:47.961Z,16.40
2022-10-03T14:28:18.907Z,16.40
2022-10-03T14:31:06.082Z,16.60
2022-10-03T14:33:39.101Z,16.60
2022-10-03T14:36:30.034Z,16.40
2022-10-03T14:39:21.655Z,16.10
2022-10-03T14:42:02.106Z,15.80
2022-10-03T14:44:36.519Z,15.80
2022-10-03T14:47:10.057Z,15.70
2022-10-03T14:49:54.950Z,15.70
2022-10-03T14:52:30.010Z,15.70
2022-10-03T14:54:59.598Z,15.60
2022-10-03T14:57:39.671Z,15.60
2022-10-03T15:00:28.880Z,15.50
2022-10-03T15:02:58.488Z,15.50
2022-10-03T15:05:35.172Z,15.50
2022-10-03T15:08:03.768Z,15.50
2022-10-03T15:10:32.372Z,15.50
2022-10-03T15:13:04.417Z,15.50
2022-10-03T15:15:34.905Z,15.50
2022-10-03T15:18:04.989Z,15.50
2022-10-03T15:20:36.889Z,15.40
2022-10-03T15:23:06.447Z,15.30
2022-10-03T15:25:36.760Z,15.30
2022-10-03T15:28:06.299Z,15.40
2022-10-03T15:30:35.874Z,15.40
2022-10-03T15:33:07.988Z,15.40
2022-10-03T15:35:36.270Z,15.50
2022-10-03T15:38:07.808Z,15.50
2022-10-03T15:40:39.264Z,15.50
2022-10-03T15:43:09.395Z,15.50
2022-10-03T15:45:37.706Z,15.50
2022-10-03T15:48:13.232Z,15.50
2022-10-03T15:50:43.704Z,15.40
2022-10-03T15:53:35.489Z,15.50
2022-10-03T15:56:11.319Z,15.50
2022-10-03T15:58:39.968Z,15.40
2022-10-03T16:01:11.092Z,15.30
2022-10-03T16:03:43.820Z,15.30
2022-10-03T16:06:13.776Z,15.20
2022-10-03T16:08:48.110Z,15.20
2022-10-03T16:11:18.073Z,15.10
2022-10-03T16:13:47.731Z,15.10
2022-10-03T16:16:18.428Z,15.00
2022-10-03T16:18:53.229Z,15.10
2022-10-03T16:21:40.491Z,15.00
2022-10-03T16:24:09.179Z,15.00
2022-10-03T16:26:41.095Z,15.00
2022-10-03T16:29:13.375Z,14.80
2022-10-03T16:31:42.700Z,14.80
2022-10-03T16:34:15.785Z,14.70
2022-10-03T16:36:44.327Z,14.60
2022-10-03T16:39:19.751Z,14.50
2022-10-03T16:41:48.856Z,14.50
2022-10-03T16:44:20.410Z,14.50
2022-10-03T16:46:48.411Z,14.40
2022-10-03T16:49:53.355Z,14.30
2022-10-03T16:52:23.070Z,14.20
2022-10-03T16:54:53.005Z,14.10
2022-10-03T16:57:21.828Z,14.10
2022-10-03T16:59:52.120Z,14.00
2022-10-03T17:02:21.550Z,14.00
2022-10-03T17:04:52.895Z,13.90
2022-10-03T17:07:22.380Z,13.90
2022-10-03T17:09:51.093Z,13.80
2022-10-03T17:12:21.389Z,13.70
2022-10-03T17:14:49.556Z,13.60
2022-10-03T17:17:24.651Z,13.50
2022-10-03T17:19:58.416Z,13.40
2022-10-03T17:22:29.862Z,13.40
2022-10-03T17:25:00.193Z,13.30
2022-10-03T17:27:31.849Z,13.30
2022-10-03T17:30:02.296Z,13.20
2022-10-03T17:32:31.791Z,13.10
2022-10-03T17:35:05.168Z,13.10
2022-10-03T17:38:24.617Z,13.00
2022-10-03T17:40:56.327Z,13.00
2022-10-03T17:43:30.603Z,12.90
2022-10-03T17:46:05.590Z,12.90
2022-10-03T17:48:37.704Z,12.80
2022-10-03T17:51:27.048Z,12.80
2022-10-03T17:53:57.721Z,12.70
2022-10-03T17:56:26.086Z,12.60
2022-10-03T17:58:56.998Z,12.60
2022-10-03T18:01:28.327Z,12.50
2022-10-03T18:03:58.466Z,12.50
2022-10-03T18:06:47.087Z,12.50
2022-10-03T18:09:25.858Z,12.50
2022-10-03T18:11:53.901Z,12.40
2022-10-03T18:14:29.816Z,12.40
2022-10-03T18:17:02.351Z,12.30
2022-10-03T18:19:34.742Z,12.30
2022-10-03T18:22:09.550Z,12.20
2022-10-03T18:24:45.259Z,12.20
2022-10-03T18:27:51.493Z,12.10
2022-10-03T18:30:20.663Z,12.10
2022-10-03T18:32:48.659Z,12.10
2022-10-03T18:35:18.082Z,12.00
2022-10-03T18:38:01.007Z,12.00
2022-10-03T18:40:30.263Z,11.90
2022-10-03T18:42:58.321Z,11.90
2022-10-03T18:45:29.092Z,11.90
2022-10-03T18:48:00.240Z,11.80
2022-10-03T18:50:30.085Z,11.80
2022-10-03T18:53:02.022Z,11.70
2022-10-03T18:55:31.655Z,11.60
2022-10-03T18:58:01.757Z,11.60
2022-10-03T19:00:31.434Z,11.70
2022-10-03T19:03:00.854Z,11.70
2022-10-03T19:05:30.497Z,11.70
2022-10-03T19:08:03.573Z,11.70
2022-10-03T19:10:38.624Z,11.70
2022-10-03T19:13:16.479Z,11.70
2022-10-03T19:15:58.100Z,11.80
2022-10-03T19:18:27.930Z,11.80
2022-10-03T19:20:57.572Z,11.80
2022-10-03T19:23:28.233Z,11.80
2022-10-03T19:25:57.854Z,11.80
2022-10-03T19:28:28.340Z,11.80
2022-10-03T19:31:04.336Z,11.80
2022-10-03T19:33:33.386Z,11.90
2022-10-03T19:36:03.012Z,11.90
2022-10-03T19:38:33.715Z,11.90
2022-10-03T19:41:04.820Z,11.90
2022-10-03T19:43:44.486Z,12.00
2022-10-03T19:46:17.159Z,12.00
2022-10-03T19:48:48.338Z,12.00
2022-10-03T19:51:22.627Z,12.00
2022-10-03T19:53:54.298Z,12.00
2022-10-03T19:56:23.064Z,12.10
2022-10-03T19:58:59.686Z,12.10
2022-10-03T20:01:27.857Z,12.10
2022-10-03T20:03:58.045Z,12.10
2022-10-03T20:06:27.562Z,12.10
2022-10-03T20:08:57.465Z,12.20
2022-10-03T20:11:38.660Z,12.20
2022-10-03T20:14:06.962Z,12.20
2022-10-03T20:16:41.195Z,12.20
2022-10-03T20:19:10.677Z,12.30
2022-10-03T20:21:38.867Z,12.20
2022-10-03T20:24:14.307Z,12.30
2022-10-03T20:26:45.351Z,12.30
2022-10-03T20:29:21.564Z,12.30
2022-10-03T20:31:49.683Z,12.30
2022-10-03T20:34:18.657Z,12.30
2022-10-03T20:36:48.923Z,12.40
2022-10-03T20:39:19.597Z,12.40
2022-10-03T20:41:56.468Z,12.40
2022-10-03T20:44:31.196Z,12.40
2022-10-03T20:47:01.722Z,12.50
2022-10-03T20:49:31.635Z,12.50
2022-10-03T20:52:03.353Z,12.50
2022-10-03T20:54:36.479Z,12.50
2022-10-03T20:57:05.864Z,12.50
2022-10-03T20:59:38.230Z,12.60
2022-10-03T21:02:08.879Z,12.50
2022-10-03T21:04:39.857Z,12.50
2022-10-03T21:07:13.851Z,12.50
2022-10-03T21:09:46.051Z,12.50
2022-10-03T21:12:19.684Z,12.50
2022-10-03T21:14:49.955Z,12.60
2022-10-03T21:17:18.023Z,12.60
2022-10-03T21:19:48.082Z,12.70
2022-10-03T21:22:17.319Z,12.60
2022-10-03T21:24:54.396Z,12.70
2022-10-03T21:27:22.463Z,12.70
2022-10-03T21:29:59.740Z,12.80
2022-10-03T21:32:44.337Z,12.80
2022-10-03T21:35:21.637Z,12.80
2022-10-03T21:37:51.919Z,12.80
2022-10-03T21:40:29.760Z,12.90
2022-10-03T21:43:02.799Z,12.90
2022-10-03T21:45:33.904Z,12.90
2022-10-03T21:48:03.245Z,12.90
2022-10-03T21:50:32.241Z,12.90
2022-10-03T21:53:09.897Z,12.90
2022-10-03T21:55:52.956Z,13.00
2022-10-03T21:58:36.721Z,13.00
2022-10-03T22:01:07.964Z,13.00
2022-10-03T22:03:38.136Z,13.00
2022-10-03T22:06:11.032Z,13.00
2022-10-03T22:08:39.406Z,13.10
2022-10-03T22:11:14.077Z,13.10
2022-10-03T22:13:43.662Z,13.10
2022-10-03T22:16:15.647Z,13.10
2022-10-03T22:19:07.422Z,13.10
2022-10-03T22:21:38.813Z,13.10
2022-10-03T22:24:09.699Z,13.10
2022-10-03T22:26:40.881Z,13.00
2022-10-03T22:29:11.970Z,13.00
2022-10-03T22:31:43.160Z,13.10
2022-10-03T22:34:18.852Z,13.10
2022-10-03T22:36:46.848Z,13.10
2022-10-03T22:39:16.626Z,13.10
2022-10-03T22:41:47.612Z,13.10
2022-10-03T22:44:16.167Z,13.10
2022-10-03T22:46:45.554Z,13.20
2022-10-03T22:49:15.989Z,13.10
2022-10-03T22:51:44.224Z,13.10
2022-10-03T22:54:14.022Z,13.10
2022-10-03T22:56:46.448Z,13.10
2022-10-03T22:59:18.061Z,13.10
2022-10-03T23:01:47.224Z,13.10
2022-10-03T23:04:18.841Z,13.00
2022-10-03T23:07:13.031Z,13.00
2022-10-03T23:09:43.847Z,12.90
2022-10-03T23:12:13.253Z,12.90
2022-10-03T23:14:42.210Z,12.90
2022-10-03T23:17:14.446Z,12.90
2022-10-03T23:19:47.953Z,12.80
2022-10-03T23:22:17.178Z,12.80
2022-10-03T23:24:45.660Z,12.80
2022-10-03T23:27:36.688Z,12.80
2022-10-03T23:30:46.505Z,12.80
2022-10-03T23:33:19.712Z,12.80
2022-10-03T23:35:47.839Z,12.80
2022-10-03T23:38:53.590Z,12.80
2022-10-03T23:41:30.499Z,12.80
2022-10-03T23:44:00.015Z,12.80
2022-10-03T23:46:29.092Z,12.90
2022-10-03T23:48:58.256Z,12.90
2022-10-03T23:51:29.562Z,12.90
2022-10-03T23:53:58.588Z,12.90
2022-10-03T23:56:30.336Z,12.90
2022-10-03T23:59:09.300Z,12.90
